Time;durP1;ratioP1;P1;durP2;ratioP2;P2;SDS_P1;SDS_P2;PMS_P1;PMS_P2;Temp;Humidity;BMP_temperature;BMP_pressure;BME280_temperature;BME280_humidity;BME280_pressure;Samples;Min_cycle;Max_cycle;Signal;HPM_P1;HPM_P2
2021/06/25 00:00:40;;;;;;;27.33;19.10;;;16.80;99.90;;;;;;5052104;28;20033;-63
2021/06/25 00:03:12;;;;;;;29.83;18.88;;;16.80;99.90;;;;;;5055673;28;20033;-64
2021/06/25 00:05:38;;;;;;;29.05;18.73;;;16.80;99.90;;;;;;5055987;28;20494;-63
2021/06/25 00:08:04;;;;;;;25.73;17.63;;;16.80;99.90;;;;;;5058050;28;20031;-62
2021/06/25 00:10:29;;;;;;;27.95;19.17;;;16.80;99.90;;;;;;5063483;28;20406;-60
2021/06/25 00:12:55;;;;;;;24.73;19.02;;;16.70;99.90;;;;;;5056849;28;20017;-60
2021/06/25 00:15:21;;;;;;;25.30;17.67;;;16.70;99.90;;;;;;5054548;28;20028;-63
2021/06/25 00:17:47;;;;;;;25.63;17.30;;;16.80;99.90;;;;;;5056103;28;20048;-62
2021/06/25 00:20:14;;;;;;;23.88;17.45;;;16.80;99.90;;;;;;5060656;28;20410;-61
2021/06/25 00:22:40;;;;;;;28.58;20.38;;;16.70;99.90;;;;;;5054237;28;20021;-63
2021/06/25 00:25:06;;;;;;;26.33;19.80;;;16.70;99.90;;;;;;5054939;28;20032;-63
2021/06/25 00:27:33;;;;;;;30.05;18.10;;;16.60;99.90;;;;;;5056336;28;20032;-63
2021/06/25 00:29:58;;;;;;;29.40;21.00;;;16.60;99.90;;;;;;5060714;28;20025;-62
2021/06/25 00:32:24;;;;;;;39.10;23.10;;;16.60;99.90;;;;;;5063330;28;20025;-63
2021/06/25 00:34:49;;;;;;;30.38;21.83;;;16.50;99.90;;;;;;5056527;28;20559;-58
2021/06/25 00:37:15;;;;;;;30.92;21.67;;;16.50;99.90;;;;;;5057255;28;20029;-63
2021/06/25 00:39:41;;;;;;;30.25;22.38;;;16.40;99.90;;;;;;5056453;28;20029;-63
2021/06/25 00:42:08;;;;;;;35.42;22.10;;;16.30;99.90;;;;;;5056064;28;20032;-60
2021/06/25 00:44:38;;;;;;;30.38;23.17;;;16.30;99.90;;;;;;5060624;28;20032;-63
2021/06/25 00:47:05;;;;;;;29.52;23.02;;;16.20;99.90;;;;;;5062069;28;20028;-64
2021/06/25 00:49:31;;;;;;;34.15;24.75;;;16.20;99.90;;;;;;5058044;28;20114;-63
2021/06/25 00:51:56;;;;;;;38.10;24.13;;;16.10;99.90;;;;;;5051972;28;20087;-63
2021/06/25 00:54:22;;;;;;;37.47;26.00;;;16.00;99.90;;;;;;5056264;28;20036;-64
2021/06/25 00:56:47;;;;;;;33.10;23.55;;;16.00;99.90;;;;;;5056462;28;20024;-63
2021/06/25 00:59:13;;;;;;;39.28;26.83;;;15.90;99.90;;;;;;5058743;28;20071;-63
2021/06/25 01:01:39;;;;;;;34.22;24.98;;;15.80;99.90;;;;;;5056865;28;20406;-63
2021/06/25 01:04:04;;;;;;;33.70;25.15;;;15.70;99.90;;;;;;5058978;28;20413;-62
2021/06/25 01:06:30;;;;;;;42.38;27.35;;;15.70;99.90;;;;;;5066224;28;20043;-62
2021/06/25 01:08:57;;;;;;;35.38;24.05;;;15.60;99.90;;;;;;5056618;28;20025;-61
2021/06/25 01:11:22;;;;;;;40.63;28.80;;;15.60;99.90;;;;;;5059531;28;20038;-61
2021/06/25 01:13:48;;;;;;;39.47;26.45;;;15.50;99.90;;;;;;5065234;28;20028;-63
2021/06/25 01:16:14;;;;;;;34.50;25.08;;;15.50;99.90;;;;;;5057249;28;20032;-62
2021/06/25 01:18:41;;;;;;;40.65;25.75;;;15.40;99.90;;;;;;5060249;28;20036;-62
2021/06/25 01:21:07;;;;;;;38.65;26.17;;;15.30;99.90;;;;;;5067146;28;20446;-63
2021/06/25 01:23:37;;;;;;;45.63;27.48;;;15.30;99.90;;;;;;5061015;28;20398;-59
2021/06/25 01:26:03;;;;;;;37.30;26.40;;;15.30;99.90;;;;;;5059368;28;20028;-61
2021/06/25 01:28:29;;;;;;;40.33;26.10;;;15.20;99.90;;;;;;5063839;28;20075;-63
2021/06/25 01:30:54;;;;;;;36.08;26.17;;;15.20;99.90;;;;;;5066653;28;20494;-63
2021/06/25 01:33:20;;;;;;;37.88;26.08;;;15.10;99.90;;;;;;5058030;28;20035;-63
2021/06/25 01:35:46;;;;;;;39.30;25.38;;;15.00;99.90;;;;;;5059849;28;20021;-62
2021/06/25 01:38:13;;;;;;;40.03;26.98;;;14.90;99.90;;;;;;5063924;28;20052;-61
2021/06/25 01:40:41;;;;;;;37.78;26.73;;;14.80;99.90;;;;;;5063751;28;20032;-63
2021/06/25 01:43:08;;;;;;;41.38;27.30;;;14.80;99.90;;;;;;5060438;28;20383;-62
2021/06/25 01:45:36;;;;;;;42.47;27.27;;;14.70;99.90;;;;;;5063174;28;20116;-58
2021/06/25 01:48:03;;;;;;;42.65;27.70;;;14.60;99.90;;;;;;5061553;28;20074;-61
2021/06/25 01:50:32;;;;;;;42.17;28.67;;;14.50;99.90;;;;;;5063549;28;20428;-63
2021/06/25 01:53:00;;;;;;;36.90;27.63;;;14.50;99.90;;;;;;5053423;28;20095;-62
2021/06/25 01:55:28;;;;;;;38.28;28.25;;;14.40;99.90;;;;;;5053476;28;20070;-62
2021/06/25 01:57:54;;;;;;;40.35;28.63;;;14.30;99.90;;;;;;5064381;28;20502;-63
2021/06/25 02:00:20;;;;;;;50.05;30.85;;;14.30;99.90;;;;;;5055077;28;20029;-62
2021/06/25 02:02:46;;;;;;;45.60;29.73;;;14.30;99.90;;;;;;5067423;28;20397;-62
2021/06/25 02:05:13;;;;;;;51.22;31.23;;;14.30;99.90;;;;;;5056818;28;20032;-63
2021/06/25 02:07:39;;;;;;;47.80;30.70;;;14.20;99.90;;;;;;5063138;28;20036;-63
2021/06/25 02:10:07;;;;;;;41.00;29.20;;;14.20;99.90;;;;;;5062659;28;20552;-62
2021/06/25 02:12:35;;;;;;;48.95;32.22;;;14.20;99.90;;;;;;5066370;28;20036;-63
2021/06/25 02:15:01;;;;;;;53.05;32.42;;;14.20;99.90;;;;;;5057257;28;20013;-61
2021/06/25 02:17:26;;;;;;;43.33;30.98;;;14.20;99.90;;;;;;5062414;28;20032;-62
2021/06/25 02:19:52;;;;;;;52.53;31.17;;;14.20;99.90;;;;;;5055611;28;20021;-63
2021/06/25 02:22:17;;;;;;;48.50;31.80;;;14.10;99.90;;;;;;5059370;28;20041;-62
2021/06/25 02:24:43;;;;;;;54.22;31.20;;;14.10;99.90;;;;;;5054550;28;20107;-62
2021/06/25 02:27:09;;;;;;;46.78;29.42;;;14.10;99.90;;;;;;5063790;28;20023;-62
2021/06/25 02:29:35;;;;;;;48.15;31.33;;;14.10;99.90;;;;;;5061014;28;20040;-59
2021/06/25 02:32:01;;;;;;;47.72;32.17;;;14.10;99.90;;;;;;5061117;28;20029;-63
2021/06/25 02:34:26;;;;;;;46.70;29.92;;;14.00;99.90;;;;;;5052433;28;20024;-62
2021/06/25 02:36:52;;;;;;;57.20;32.60;;;14.00;99.90;;;;;;5057283;28;20025;-63
2021/06/25 02:39:19;;;;;;;55.83;32.92;;;14.00;99.90;;;;;;5053125;28;20037;-63
2021/06/25 02:41:45;;;;;;;50.60;31.30;;;14.00;99.90;;;;;;5061538;28;20444;-62
2021/06/25 02:44:10;;;;;;;50.58;32.10;;;14.00;99.90;;;;;;5055155;28;20020;-62
2021/06/25 02:46:36;;;;;;;44.55;31.42;;;14.00;99.90;;;;;;5053885;28;20117;-62
2021/06/25 02:49:01;;;;;;;50.25;33.03;;;13.90;99.90;;;;;;5064389;28;20033;-62
2021/06/25 02:51:27;;;;;;;46.78;31.60;;;13.90;99.90;;;;;;5056492;28;20086;-63
2021/06/25 02:53:53;;;;;;;51.67;32.00;;;13.90;99.90;;;;;;5059904;28;20021;-62
2021/06/25 02:56:19;;;;;;;50.65;32.13;;;13.90;99.90;;;;;;5052348;28;20029;-63
2021/06/25 02:58:45;;;;;;;53.15;33.47;;;13.90;99.90;;;;;;5050631;28;20449;-62
2021/06/25 03:01:10;;;;;;;52.22;33.08;;;13.90;99.90;;;;;;5063674;28;20016;-62
2021/06/25 03:03:36;;;;;;;48.17;32.83;;;13.90;99.90;;;;;;5062110;28;20082;-58
2021/06/25 03:06:02;;;;;;;53.30;34.83;;;13.80;99.90;;;;;;5064117;28;20459;-62
2021/06/25 03:08:28;;;;;;;50.83;33.28;;;13.80;99.90;;;;;;5060304;28;20501;-63
2021/06/25 03:10:54;;;;;;;50.85;30.80;;;13.80;99.90;;;;;;5052136;28;20037;-63
2021/06/25 03:13:20;;;;;;;53.47;33.47;;;13.80;99.90;;;;;;5060108;28;20036;-62
2021/06/25 03:15:47;;;;;;;50.28;31.95;;;13.80;99.90;;;;;;5060538;28;20036;-63
2021/06/25 03:18:14;;;;;;;51.42;32.50;;;13.80;99.90;;;;;;5060600;28;20398;-62
2021/06/25 03:20:40;;;;;;;47.67;33.70;;;13.70;99.90;;;;;;5057192;28;20031;-63
2021/06/25 03:23:06;;;;;;;45.78;31.70;;;13.70;99.90;;;;;;5055559;28;20421;-63
2021/06/25 03:25:32;;;;;;;48.63;31.58;;;13.70;99.90;;;;;;5055623;28;20028;-62
2021/06/25 03:27:58;;;;;;;49.17;32.35;;;13.70;99.90;;;;;;5055531;28;20043;-62
2021/06/25 03:30:24;;;;;;;51.60;32.97;;;13.70;99.90;;;;;;5058558;28;20032;-63
2021/06/25 03:32:50;;;;;;;50.47;32.60;;;13.70;99.90;;;;;;5062670;28;20379;-62
2021/06/25 03:35:16;;;;;;;48.92;31.17;;;13.70;99.90;;;;;;5061107;28;20029;-62
2021/06/25 03:37:41;;;;;;;56.38;32.78;;;13.70;99.90;;;;;;5059705;28;20475;-63
2021/06/25 03:40:10;;;;;;;44.63;29.15;;;13.70;99.90;;;;;;5065824;28;20520;-63
2021/06/25 03:42:36;;;;;;;48.22;31.13;;;13.70;99.90;;;;;;5055665;28;20116;-62
2021/06/25 03:45:04;;;;;;;55.42;32.13;;;13.70;99.90;;;;;;5055188;28;20043;-63
2021/06/25 03:47:30;;;;;;;45.45;30.45;;;13.70;99.90;;;;;;5053563;28;20490;-62
2021/06/25 03:49:55;;;;;;;52.92;31.27;;;13.70;99.90;;;;;;5061019;28;20043;-63
2021/06/25 03:52:21;;;;;;;51.15;33.65;;;13.70;99.90;;;;;;5055701;28;20042;-63
2021/06/25 03:54:46;;;;;;;48.85;31.23;;;13.70;99.90;;;;;;5058790;28;20062;-63
2021/06/25 03:57:12;;;;;;;50.00;31.50;;;13.70;99.90;;;;;;5060240;28;20033;-63
2021/06/25 03:59:38;;;;;;;48.78;30.92;;;13.80;99.90;;;;;;5052814;28;20066;-58
2021/06/25 04:02:08;;;;;;;47.35;32.67;;;13.80;99.90;;;;;;5058544;28;20119;-62
2021/06/25 04:04:34;;;;;;;41.42;31.65;;;13.90;99.90;;;;;;5062873;28;20032;-62
2021/06/25 04:07:00;;;;;;;46.65;31.30;;;14.00;99.90;;;;;;5061885;28;20043;-62
2021/06/25 04:09:26;;;;;;;51.38;31.77;;;14.10;99.90;;;;;;5060927;28;20043;-62
2021/06/25 04:11:52;;;;;;;43.85;30.52;;;14.10;99.90;;;;;;5055022;28;20071;-62
2021/06/25 04:14:17;;;;;;;56.58;30.92;;;14.20;99.90;;;;;;5063402;28;20032;-63
2021/06/25 04:16:43;;;;;;;47.85;30.73;;;14.20;99.90;;;;;;5057248;28;20025;-62
2021/06/25 04:19:08;;;;;;;43.03;31.55;;;14.20;99.90;;;;;;5052850;28;20044;-62
2021/06/25 04:21:34;;;;;;;50.08;31.92;;;14.20;99.90;;;;;;5054435;28;20094;-60
2021/06/25 04:24:00;;;;;;;44.95;29.98;;;14.20;99.90;;;;;;5067860;28;20048;-64
2021/06/25 04:26:25;;;;;;;47.78;31.38;;;14.30;99.90;;;;;;5054459;28;20033;-63
2021/06/25 04:28:51;;;;;;;51.38;31.20;;;14.30;99.90;;;;;;5056119;28;20040;-62
2021/06/25 04:31:16;;;;;;;43.03;31.83;;;14.40;99.90;;;;;;5061399;28;20028;-61
2021/06/25 04:33:42;;;;;;;45.17;29.88;;;14.40;99.90;;;;;;5055111;28;20041;-61
2021/06/25 04:36:07;;;;;;;46.75;31.20;;;14.50;99.90;;;;;;5053713;28;20135;-63
2021/06/25 04:38:33;;;;;;;45.60;31.17;;;14.70;99.90;;;;;;5056921;28;20060;-60
2021/06/25 04:40:59;;;;;;;41.25;28.88;;;14.60;99.90;;;;;;5058179;28;20040;-62
2021/06/25 04:43:25;;;;;;;45.67;30.33;;;14.70;99.90;;;;;;4991003;28;20080;-61
2021/06/25 04:45:50;;;;;;;45.75;29.77;;;14.70;99.90;;;;;;5058974;28;20490;-63
2021/06/25 04:48:16;;;;;;;46.08;30.95;;;14.80;99.90;;;;;;5059664;28;20025;-62
2021/06/25 04:50:43;;;;;;;42.55;30.40;;;14.90;99.90;;;;;;5049529;28;20030;-61
2021/06/25 04:53:09;;;;;;;37.03;28.52;;;15.00;99.90;;;;;;5055892;28;20059;-61
2021/06/25 04:55:41;;;;;;;46.38;31.45;;;15.00;99.90;;;;;;5052646;28;20091;-60
2021/06/25 04:58:12;;;;;;;51.40;30.08;;;15.00;99.90;;;;;;5057941;28;20033;-64
2021/06/25 05:00:39;;;;;;;43.55;29.45;;;15.10;99.90;;;;;;5051800;28;20493;-63
2021/06/25 05:03:05;;;;;;;45.13;29.92;;;15.10;99.90;;;;;;5061936;28;20016;-62
2021/06/25 05:05:32;;;;;;;36.45;29.00;;;15.30;99.90;;;;;;5062052;28;20482;-62
2021/06/25 05:07:58;;;;;;;38.47;28.48;;;15.70;99.90;;;;;;5057108;28;20211;-63
2021/06/25 05:10:23;;;;;;;34.63;26.35;;;16.30;99.90;;;;;;5053885;28;20017;-62
2021/06/25 05:12:49;;;;;;;29.00;24.23;;;16.90;99.90;;;;;;5055511;28;20027;-63
2021/06/25 05:15:15;;;;;;;36.38;25.92;;;17.40;99.90;;;;;;5061518;28;20040;-63
2021/06/25 05:17:41;;;;;;;32.90;22.58;;;17.90;99.90;;;;;;5051592;28;20055;-63
2021/06/25 05:20:07;;;;;;;35.33;25.17;;;18.30;99.90;;;;;;5058313;28;20506;-62
2021/06/25 05:22:32;;;;;;;27.23;21.73;;;18.60;99.90;;;;;;5060885;28;20016;-63
2021/06/25 05:24:59;;;;;;;27.33;21.10;;;19.20;99.90;;;;;;5062596;28;20079;-62
2021/06/25 05:27:25;;;;;;;31.42;21.92;;;19.40;99.90;;;;;;5061528;28;20029;-63
2021/06/25 05:29:50;;;;;;;30.65;19.33;;;19.90;99.90;;;;;;5057226;28;20757;-63
2021/06/25 05:32:16;;;;;;;29.73;20.13;;;20.20;99.90;;;;;;5059732;28;20768;-64
2021/06/25 05:34:41;;;;;;;25.45;20.40;;;20.20;99.90;;;;;;5051109;28;20474;-63
2021/06/25 05:37:07;;;;;;;25.92;20.20;;;19.80;99.90;;;;;;5050966;28;20032;-63
2021/06/25 05:39:32;;;;;;;29.05;20.42;;;19.50;99.90;;;;;;5055605;28;20032;-63
2021/06/25 05:41:58;;;;;;;29.92;23.13;;;19.30;99.90;;;;;;5049298;28;20128;-62
2021/06/25 05:44:24;;;;;;;30.95;22.63;;;19.20;99.90;;;;;;5064521;28;20107;-63
2021/06/25 05:46:49;;;;;;;31.90;22.33;;;19.00;99.90;;;;;;5060474;28;20397;-64
2021/06/25 05:49:15;;;;;;;30.70;22.10;;;18.90;99.90;;;;;;5058183;28;20036;-62
2021/06/25 05:51:41;;;;;;;30.33;22.15;;;18.80;99.90;;;;;;5060049;28;20481;-63
2021/06/25 05:54:06;;;;;;;29.05;22.33;;;18.80;99.90;;;;;;5068702;28;20078;-63
2021/06/25 05:56:32;;;;;;;29.83;22.80;;;19.20;99.90;;;;;;5057333;28;20027;-63
2021/06/25 05:58:58;;;;;;;33.08;22.10;;;19.40;99.90;;;;;;5055047;28;20036;-61
2021/06/25 06:01:23;;;;;;;32.08;23.00;;;19.20;99.90;;;;;;5060546;28;20098;-62
2021/06/25 06:03:49;;;;;;;33.13;23.77;;;19.60;99.90;;;;;;5059489;28;20028;-63
2021/06/25 06:06:15;;;;;;;30.75;21.90;;;20.70;99.90;;;;;;5062936;28;20040;-63
2021/06/25 06:08:40;;;;;;;27.15;21.40;;;21.40;99.90;;;;;;5066342;28;20024;-62
2021/06/25 06:11:06;;;;;;;28.00;21.65;;;22.70;99.30;;;;;;5060634;28;20020;-64
2021/06/25 06:13:32;;;;;;;29.73;22.50;;;23.70;97.90;;;;;;5060702;28;20032;-63
2021/06/25 06:15:57;;;;;;;28.60;23.98;;;24.50;94.80;;;;;;5055715;28;20031;-64
2021/06/25 06:19:09;;;;;;;31.13;24.90;;;24.40;93.90;;;;;;5050567;28;20033;-63
2021/06/25 06:21:13;;;;;;;29.90;23.98;;;24.80;92.60;;;;;;5055666;28;20094;-62
2021/06/25 06:32:37;;;;;;;30.95;23.77;;;25.50;90.80;;;;;;5056293;28;21133;-63
2021/06/25 06:34:40;;;;;;;33.97;23.48;;;25.80;88.70;;;;;;5057651;28;20036;-63
2021/06/25 06:37:06;;;;;;;30.52;23.73;;;26.20;87.50;;;;;;5056460;28;20025;-64
2021/06/25 06:39:31;;;;;;;27.35;22.55;;;25.60;86.20;;;;;;5061747;28;20025;-62
2021/06/25 06:41:59;;;;;;;31.63;22.05;;;26.70;84.70;;;;;;5052481;28;20036;-65
2021/06/25 06:44:24;;;;;;;27.63;19.92;;;27.80;83.00;;;;;;5054806;28;20094;-64
2021/06/25 06:46:50;;;;;;;27.20;19.38;;;27.90;77.30;;;;;;5052412;28;20061;-65
2021/06/25 06:49:16;;;;;;;24.20;17.83;;;28.20;77.40;;;;;;5054232;28;20035;-64
2021/06/25 06:51:41;;;;;;;19.38;16.83;;;28.90;75.50;;;;;;5054624;28;20111;-64
2021/06/25 06:54:07;;;;;;;17.77;14.35;;;28.70;71.10;;;;;;5063104;28;20553;-64
2021/06/25 06:56:33;;;;;;;21.77;16.52;;;29.00;70.70;;;;;;5057654;28;20037;-65
2021/06/25 06:59:01;;;;;;;17.80;16.08;;;28.50;66.20;;;;;;5045428;28;20037;-65
2021/06/25 07:01:29;;;;;;;20.02;16.65;;;28.70;67.10;;;;;;5055524;28;20409;-64
2021/06/25 07:03:55;;;;;;;19.15;16.67;;;28.70;65.60;;;;;;5061995;28;20041;-64
2021/06/25 07:06:20;;;;;;;26.42;17.00;;;28.50;65.40;;;;;;5058087;28;20036;-64
2021/06/25 07:08:46;;;;;;;19.85;15.88;;;27.90;65.40;;;;;;5061933;28;20050;-63
2021/06/25 07:11:12;;;;;;;17.90;15.23;;;27.30;66.00;;;;;;5056519;28;20342;-64
2021/06/25 07:13:38;;;;;;;16.15;14.35;;;26.40;66.90;;;;;;5056858;28;20013;-62
2021/06/25 07:16:04;;;;;;;17.50;13.55;;;25.90;70.40;;;;;;5060076;28;20082;-63
2021/06/25 07:18:30;;;;;;;17.90;13.65;;;26.20;71.20;;;;;;5053153;28;20564;-63
2021/06/25 07:20:55;;;;;;;19.60;13.88;;;26.20;69.10;;;;;;5057493;28;20085;-64
2021/06/25 07:23:21;;;;;;;17.77;13.43;;;26.60;67.90;;;;;;5063773;28;20052;-65
2021/06/25 07:25:47;;;;;;;17.05;13.98;;;27.00;68.00;;;;;;5051363;28;20455;-64
2021/06/25 07:28:13;;;;;;;16.60;13.63;;;26.80;66.30;;;;;;5057174;28;20029;-65
2021/06/25 07:30:38;;;;;;;16.50;12.63;;;27.10;66.30;;;;;;5050576;28;20471;-64
2021/06/25 07:33:04;;;;;;;17.95;11.85;;;27.30;65.90;;;;;;5056926;28;20028;-61
2021/06/25 07:35:31;;;;;;;23.05;14.10;;;28.10;66.70;;;;;;5056377;28;20029;-64
2021/06/25 07:37:56;;;;;;;16.17;13.85;;;27.50;63.30;;;;;;5064060;28;20052;-64
2021/06/25 07:40:22;;;;;;;18.48;13.60;;;27.60;65.10;;;;;;5060324;28;20459;-65
2021/06/25 07:42:48;;;;;;;18.15;13.70;;;27.30;63.40;;;;;;5051931;28;20037;-64
2021/06/25 07:45:14;;;;;;;18.95;14.45;;;27.30;63.90;;;;;;5061748;28;20517;-64
2021/06/25 07:47:42;;;;;;;16.38;12.25;;;27.70;63.60;;;;;;5061275;28;20033;-62
2021/06/25 07:50:10;;;;;;;19.60;13.13;;;28.80;64.40;;;;;;5058719;28;20039;-64
2021/06/25 07:52:36;;;;;;;18.02;13.20;;;29.50;60.80;;;;;;5061586;28;20031;-63
2021/06/25 07:55:02;;;;;;;18.85;12.50;;;30.30;59.10;;;;;;5057136;28;20029;-62
2021/06/25 07:57:28;;;;;;;18.10;10.95;;;30.10;60.10;;;;;;5060813;28;20028;-60
2021/06/25 07:59:54;;;;;;;13.27;10.65;;;29.30;60.90;;;;;;5063653;28;20039;-64
2021/06/25 08:02:19;;;;;;;15.93;11.23;;;29.10;58.70;;;;;;5059026;28;20037;-61
2021/06/25 08:04:46;;;;;;;11.95;10.05;;;29.20;60.50;;;;;;5059241;28;20089;-64
2021/06/25 08:07:15;;;;;;;12.10;8.85;;;29.10;59.10;;;;;;5064524;28;20425;-65
2021/06/25 08:09:42;;;;;;;10.00;7.70;;;28.90;56.70;;;;;;5056820;28;20111;-63
2021/06/25 08:12:09;;;;;;;10.57;8.13;;;29.10;56.30;;;;;;5054739;28;20057;-64
2021/06/25 08:14:36;;;;;;;9.98;6.97;;;29.90;56.40;;;;;;5056156;28;20029;-64
2021/06/25 08:17:01;;;;;;;11.02;5.60;;;30.60;54.00;;;;;;5057640;28;20097;-64
2021/06/25 08:19:27;;;;;;;7.35;6.45;;;31.20;50.90;;;;;;5060607;28;20493;-65
2021/06/25 08:21:53;;;;;;;9.55;7.43;;;30.50;50.00;;;;;;5054559;28;20417;-64
2021/06/25 08:24:18;;;;;;;13.35;8.00;;;30.80;52.40;;;;;;5053854;28;20145;-64
2021/06/25 08:26:44;;;;;;;16.38;8.25;;;30.80;49.20;;;;;;5059592;28;20131;-64
2021/06/25 08:29:09;;;;;;;16.48;7.80;;;30.50;52.20;;;;;;5058768;28;20036;-64
2021/06/25 08:31:35;;;;;;;11.55;8.05;;;30.30;50.20;;;;;;5063925;28;20020;-64
2021/06/25 08:34:01;;;;;;;9.90;6.88;;;29.90;50.30;;;;;;5053000;28;20025;-64
2021/06/25 08:36:28;;;;;;;9.60;5.68;;;29.70;50.40;;;;;;5054680;28;20033;-65
2021/06/25 08:38:54;;;;;;;12.05;5.82;;;29.40;48.10;;;;;;5055381;28;20029;-64
2021/06/25 08:41:19;;;;;;;10.60;6.20;;;28.70;48.40;;;;;;5059304;28;20108;-64
2021/06/25 08:43:45;;;;;;;8.18;5.40;;;28.90;50.20;;;;;;5056091;28;20029;-64
2021/06/25 08:46:11;;;;;;;8.40;5.13;;;29.10;49.90;;;;;;5053285;28;20039;-64
2021/06/25 08:48:37;;;;;;;9.10;4.70;;;28.90;47.30;;;;;;5056387;28;20025;-64
2021/06/25 08:51:05;;;;;;;6.80;4.30;;;28.70;48.20;;;;;;5060926;28;20028;-64
2021/06/25 08:53:31;;;;;;;6.80;5.05;;;28.50;49.70;;;;;;5059806;28;20029;-65
2021/06/25 08:55:57;;;;;;;5.07;4.35;;;28.70;48.90;;;;;;5060370;28;20564;-64
2021/06/25 08:58:23;;;;;;;5.30;4.68;;;29.40;49.20;;;;;;5055664;28;20066;-63
2021/06/25 09:00:50;;;;;;;8.20;4.22;;;28.80;47.60;;;;;;5063429;28;20497;-65
2021/06/25 09:03:20;;;;;;;10.77;5.82;;;28.70;48.40;;;;;;5057466;28;20045;-65
2021/06/25 09:05:45;;;;;;;8.02;5.88;;;28.80;48.10;;;;;;5056786;28;20071;-65
2021/06/25 09:08:25;;;;;;;6.18;5.22;;;29.30;49.30;;;;;;5061674;28;20052;-64
2021/06/25 09:10:53;;;;;;;8.18;4.63;;;29.10;46.90;;;;;;5056479;28;20039;-64
2021/06/25 09:13:28;;;;;;;6.05;3.80;;;29.80;49.50;;;;;;5054131;28;20098;-63
2021/06/25 09:15:54;;;;;;;6.32;4.50;;;30.40;48.50;;;;;;5049776;28;20021;-65
2021/06/25 09:18:20;;;;;;;6.28;4.93;;;31.50;48.60;;;;;;5056534;28;20367;-64
2021/06/25 09:20:50;;;;;;;8.15;5.07;;;31.50;46.10;;;;;;5055306;28;20028;-65
2021/06/25 09:23:22;;;;;;;7.97;4.95;;;30.70;45.80;;;;;;5060100;28;20729;-64
2021/06/25 09:25:59;;;;;;;6.07;5.03;;;30.90;43.80;;;;;;5066766;28;20035;-65
2021/06/25 09:28:33;;;;;;;8.02;4.70;;;30.30;44.20;;;;;;5051172;28;20524;-65
2021/06/25 09:30:59;;;;;;;9.07;5.40;;;30.50;46.30;;;;;;5065362;28;20115;-64
2021/06/25 09:33:24;;;;;;;6.32;5.20;;;30.80;46.10;;;;;;5061360;28;20111;-59
2021/06/25 09:35:55;;;;;;;7.00;4.57;;;30.10;45.60;;;;;;5058068;28;20048;-64
2021/06/25 09:38:39;;;;;;;6.18;4.95;;;30.50;47.60;;;;;;5060278;28;20032;-64
2021/06/25 09:41:21;;;;;;;6.88;6.05;;;31.00;44.40;;;;;;5060306;28;20072;-64
2021/06/25 09:43:58;;;;;;;12.98;5.15;;;31.30;43.40;;;;;;5057586;28;20091;-63
2021/06/25 09:46:30;;;;;;;7.03;4.65;;;30.60;45.90;;;;;;5062212;28;20563;-63
2021/06/25 09:48:59;;;;;;;7.78;4.25;;;29.60;44.70;;;;;;5055243;28;20043;-64
2021/06/25 09:51:25;;;;;;;9.23;5.20;;;29.50;43.90;;;;;;5056846;28;20048;-64
2021/06/25 09:54:27;;;;;;;7.97;4.60;;;28.90;44.10;;;;;;5061722;28;20025;-64
2021/06/25 10:02:21;;;;;;;10.45;5.57;;;29.30;45.90;;;;;;5062419;28;20032;-64
2021/06/25 10:04:50;;;;;;;6.90;5.30;;;29.70;43.60;;;;;;5068262;28;20367;-57
2021/06/25 10:07:27;;;;;;;10.13;5.18;;;29.50;45.40;;;;;;5065926;28;20032;-64
2021/06/25 10:09:56;;;;;;;8.07;5.53;;;30.10;46.70;;;;;;5063506;28;20037;-64
2021/06/25 10:12:23;;;;;;;6.38;5.43;;;29.50;43.00;;;;;;5060797;28;20029;-59
2021/06/25 10:14:50;;;;;;;8.43;5.40;;;29.20;45.00;;;;;;5068876;28;20413;-63
2021/06/25 10:17:16;;;;;;;5.95;4.90;;;29.40;45.10;;;;;;5057226;28;20027;-64
2021/06/25 10:19:48;;;;;;;7.68;4.50;;;28.10;44.70;;;;;;5056689;28;20033;-63
2021/06/25 10:22:16;;;;;;;5.38;4.50;;;27.50;44.80;;;;;;5051893;28;20037;-64
2021/06/25 10:24:44;;;;;;;5.72;4.88;;;27.90;48.30;;;;;;5056215;28;20171;-64
2021/06/25 10:27:12;;;;;;;8.13;5.07;;;27.90;46.30;;;;;;5056794;28;20024;-60
2021/06/25 10:29:38;;;;;;;8.65;4.72;;;28.30;45.20;;;;;;5062833;28;20032;-62
2021/06/25 10:32:08;;;;;;;5.22;4.40;;;27.60;44.20;;;;;;5064393;28;20021;-64
2021/06/25 10:34:38;;;;;;;5.18;4.38;;;27.70;42.30;;;;;;5061213;28;20067;-64
2021/06/25 10:37:07;;;;;;;6.82;4.00;;;27.50;45.20;;;;;;5047706;28;20064;-62
2021/06/25 10:39:34;;;;;;;8.02;5.03;;;27.50;47.70;;;;;;5051355;28;20036;-63
2021/06/25 10:42:09;;;;;;;6.65;4.97;;;27.50;46.50;;;;;;5059616;28;20416;-62
2021/06/25 10:44:40;;;;;;;10.68;5.40;;;27.10;45.90;;;;;;5059372;28;20025;-64
2021/06/25 10:47:15;;;;;;;10.55;5.35;;;26.70;45.40;;;;;;5057424;28;20033;-63
2021/06/25 10:49:59;;;;;;;6.07;5.10;;;26.20;47.00;;;;;;5056072;28;20032;-59
2021/06/25 10:52:28;;;;;;;7.97;5.45;;;26.20;46.00;;;;;;5060350;28;20035;-63
2021/06/25 10:55:08;;;;;;;7.60;5.05;;;26.20;48.20;;;;;;5056671;28;20029;-61
2021/06/25 10:57:49;;;;;;;11.15;6.75;;;25.90;49.60;;;;;;5054942;28;20029;-62
2021/06/25 11:00:23;;;;;;;7.88;5.68;;;25.50;50.00;;;;;;5057021;28;20549;-62
2021/06/25 11:02:49;;;;;;;11.20;6.32;;;25.70;47.20;;;;;;5054851;28;20048;-63
2021/06/25 11:05:31;;;;;;;8.68;5.75;;;26.00;46.50;;;;;;5066406;28;20109;-62
2021/06/25 11:08:21;;;;;;;6.50;3.45;;;25.80;48.40;;;;;;5050774;28;20414;-62
2021/06/25 11:10:54;;;;;;;9.35;4.10;;;25.60;47.40;;;;;;5061700;28;20109;-63
2021/06/25 11:13:22;;;;;;;5.63;4.10;;;25.40;46.50;;;;;;5054519;28;20029;-63
2021/06/25 11:15:58;;;;;;;4.07;3.45;;;25.40;48.00;;;;;;5054836;28;20020;-63
2021/06/25 11:18:25;;;;;;;8.90;3.67;;;25.30;47.00;;;;;;5054939;28;20033;-63
2021/06/25 11:20:57;;;;;;;8.40;3.30;;;25.60;48.40;;;;;;5054421;28;20017;-64
2021/06/25 11:23:26;;;;;;;4.80;4.13;;;25.60;46.00;;;;;;5050747;28;20529;-64
2021/06/25 11:25:52;;;;;;;8.75;5.88;;;25.50;45.40;;;;;;5052190;28;20047;-65
2021/06/25 11:28:37;;;;;;;8.57;4.93;;;25.20;45.50;;;;;;5052125;28;20379;-64
2021/06/25 11:33:48;;;;;;;4.57;3.35;;;25.20;48.30;;;;;;5053266;28;20505;-62
2021/06/25 11:36:17;;;;;;;9.75;3.85;;;25.20;44.70;;;;;;5052092;28;20029;-64
2021/06/25 11:39:11;;;;;;;6.40;4.57;;;25.60;45.90;;;;;;5051481;28;20028;-65
2021/06/25 11:41:44;;;;;;;4.75;3.40;;;25.60;45.10;;;;;;5055268;28;20024;-64
2021/06/25 11:44:10;;;;;;;4.25;3.60;;;25.60;44.60;;;;;;5038142;28;20132;-67
2021/06/25 11:46:36;;;;;;;7.28;5.28;;;25.30;46.30;;;;;;5058478;28;20489;-65
2021/06/25 11:49:04;;;;;;;11.13;4.97;;;25.30;45.00;;;;;;5054933;28;20028;-64
2021/06/25 11:51:41;;;;;;;6.13;4.05;;;25.00;43.80;;;;;;5052177;28;20028;-65
2021/06/25 11:54:10;;;;;;;6.03;4.00;;;25.20;43.80;;;;;;5056010;28;20028;-64
2021/06/25 11:56:36;;;;;;;7.43;4.78;;;25.30;45.30;;;;;;5057785;28;20087;-65
2021/06/25 11:59:08;;;;;;;10.82;4.50;;;25.20;47.50;;;;;;5055284;28;20036;-65
2021/06/25 12:01:46;;;;;;;6.65;4.43;;;25.10;45.80;;;;;;5057287;28;20477;-64
2021/06/25 12:04:12;;;;;;;8.98;6.40;;;24.80;47.60;;;;;;5052318;28;20107;-65
2021/06/25 12:06:49;;;;;;;7.90;5.63;;;24.60;46.70;;;;;;5065647;28;20482;-64
2021/06/25 12:09:14;;;;;;;8.05;6.10;;;24.70;47.90;;;;;;5055964;28;20017;-64
2021/06/25 12:11:41;;;;;;;9.02;5.68;;;24.70;48.40;;;;;;5052142;28;20494;-60
2021/06/25 12:14:10;;;;;;;7.70;5.03;;;24.70;46.70;;;;;;5054867;28;20112;-65
2021/06/25 12:16:42;;;;;;;6.82;5.00;;;24.80;46.40;;;;;;5053324;28;20039;-65
2021/06/25 12:19:11;;;;;;;7.97;4.55;;;25.10;46.60;;;;;;5055924;28;20028;-65
2021/06/25 12:21:38;;;;;;;6.68;4.63;;;25.10;49.30;;;;;;5051426;28;20047;-65
2021/06/25 12:24:04;;;;;;;6.38;5.32;;;25.30;48.80;;;;;;5061171;28;20042;-64
2021/06/25 12:26:30;;;;;;;7.72;5.28;;;25.50;48.90;;;;;;5053149;28;20548;-65
2021/06/25 12:28:58;;;;;;;8.88;5.13;;;25.60;48.70;;;;;;5060921;28;20024;-61
2021/06/25 12:31:28;;;;;;;6.80;5.32;;;25.60;47.00;;;;;;5054058;28;20049;-63
2021/06/25 12:34:16;;;;;;;12.40;6.18;;;25.30;47.50;;;;;;5054432;28;20033;-66
2021/06/25 12:36:42;;;;;;;9.27;6.03;;;24.80;50.10;;;;;;5056112;28;20045;-64
2021/06/25 12:39:10;;;;;;;7.78;6.00;;;24.50;49.30;;;;;;5056674;28;20040;-65
2021/06/25 12:41:44;;;;;;;9.35;6.45;;;24.40;52.20;;;;;;5054741;28;20028;-64
2021/06/25 12:44:11;;;;;;;14.18;7.15;;;24.60;50.90;;;;;;5040069;28;20079;-65
2021/06/25 12:46:37;;;;;;;10.32;7.10;;;24.70;51.30;;;;;;5055138;28;20028;-65
2021/06/25 12:49:05;;;;;;;12.05;6.43;;;25.10;52.70;;;;;;5054858;28;20541;-64
2021/06/25 12:51:36;;;;;;;9.70;6.90;;;25.20;53.10;;;;;;5052349;28;20032;-63